Time;durP1;ratioP1;P1;durP2;ratioP2;P2;SDS_P1;SDS_P2;PMS_P1;PMS_P2;Temp;Humidity;BMP_temperature;BMP_pressure;BME280_temperature;BME280_humidity;BME280_pressure;Samples;Min_cycle;Max_cycle;Signal;HPM_P1;HPM_P2
2021/05/08 00:01:33;;;;;;;1.30;1.20;;;5.40;74.50;;;;;;5052344;28;20120;-77
2021/05/08 00:03:59;;;;;;;1.20;1.10;;;5.40;74.60;;;;;;5052556;28;20536;-77
2021/05/08 00:06:24;;;;;;;1.13;1.02;;;5.30;74.70;;;;;;5052344;28;20025;-77
2021/05/08 00:08:50;;;;;;;1.55;1.02;;;5.30;74.80;;;;;;5052227;28;20060;-77
2021/05/08 00:11:15;;;;;;;1.15;1.02;;;5.30;74.90;;;;;;5034020;28;20029;-75
2021/05/08 00:13:41;;;;;;;0.90;0.90;;;5.30;74.90;;;;;;5052107;28;20150;-76
2021/05/08 00:16:06;;;;;;;1.20;0.93;;;5.30;74.90;;;;;;5056331;28;20029;-77
2021/05/08 00:18:32;;;;;;;0.80;0.70;;;5.30;74.90;;;;;;5056169;28;20036;-77
2021/05/08 00:20:58;;;;;;;0.80;0.75;;;5.30;74.80;;;;;;5055706;28;20112;-77
2021/05/08 00:23:24;;;;;;;1.17;1.08;;;5.30;74.70;;;;;;5055636;28;20075;-77
2021/05/08 00:25:49;;;;;;;0.55;0.55;;;5.30;74.80;;;;;;5055794;28;20466;-76
2021/05/08 00:28:15;;;;;;;0.88;0.88;;;5.30;75.00;;;;;;5055315;28;20053;-76
2021/05/08 00:30:40;;;;;;;0.70;0.70;;;5.30;75.10;;;;;;5055392;28;20110;-76
2021/05/08 00:33:06;;;;;;;0.90;0.90;;;5.30;75.10;;;;;;5056057;28;20021;-77
2021/05/08 00:35:31;;;;;;;0.60;0.60;;;5.30;74.90;;;;;;5056106;28;20033;-76
2021/05/08 00:37:57;;;;;;;0.98;0.90;;;5.30;74.90;;;;;;5055713;28;20024;-77
2021/05/08 00:40:23;;;;;;;1.30;1.30;;;5.30;74.90;;;;;;5055594;28;20060;-76
2021/05/08 00:42:48;;;;;;;1.10;1.00;;;5.30;75.00;;;;;;5055185;28;20033;-76
2021/05/08 00:45:14;;;;;;;1.08;1.08;;;5.30;75.00;;;;;;5055796;28;20029;-77
2021/05/08 00:47:44;;;;;;;1.15;1.00;;;5.30;75.00;;;;;;5055580;28;20051;-76
2021/05/08 00:50:10;;;;;;;1.10;1.10;;;5.20;75.10;;;;;;5055301;28;20033;-76
2021/05/08 00:52:36;;;;;;;1.55;1.27;;;5.20;75.90;;;;;;5055748;28;20067;-76
2021/05/08 00:55:04;;;;;;;1.00;1.00;;;5.20;75.30;;;;;;5037238;28;20025;-78
2021/05/08 00:57:29;;;;;;;1.23;1.13;;;5.20;75.50;;;;;;5055088;28;20033;-78
2021/05/08 00:59:55;;;;;;;1.73;1.10;;;5.10;75.50;;;;;;5055568;28;20017;-78
2021/05/08 01:02:20;;;;;;;0.77;0.75;;;5.10;75.50;;;;;;5055011;28;20484;-77
2021/05/08 01:04:46;;;;;;;1.45;1.13;;;5.20;75.50;;;;;;5055484;28;20035;-77
2021/05/08 01:07:11;;;;;;;1.02;0.93;;;5.20;75.50;;;;;;5055202;28;20528;-77
2021/05/08 01:09:37;;;;;;;0.82;0.80;;;5.20;75.40;;;;;;5054939;28;20021;-77
2021/05/08 01:12:02;;;;;;;0.98;0.98;;;5.20;75.30;;;;;;5054310;28;20035;-77
2021/05/08 01:14:28;;;;;;;0.90;0.90;;;5.20;75.20;;;;;;5055374;28;20064;-77
2021/05/08 01:16:54;;;;;;;1.60;1.40;;;5.20;75.20;;;;;;5037085;28;20377;-76
2021/05/08 01:19:20;;;;;;;0.90;0.90;;;5.20;75.20;;;;;;5054423;28;20469;-77
2021/05/08 01:21:46;;;;;;;1.20;1.10;;;5.20;75.20;;;;;;5055287;28;20075;-77
2021/05/08 01:24:12;;;;;;;1.23;1.02;;;5.10;75.30;;;;;;5054774;28;20432;-77
2021/05/08 01:26:38;;;;;;;1.42;1.20;;;5.10;75.40;;;;;;5035467;28;20021;-77
2021/05/08 01:29:05;;;;;;;1.20;1.10;;;5.00;75.60;;;;;;5054794;28;20025;-76
2021/05/08 01:31:31;;;;;;;1.48;1.02;;;5.00;75.80;;;;;;5054949;28;20063;-76
2021/05/08 01:33:57;;;;;;;1.88;1.40;;;4.90;75.90;;;;;;5054128;28;20540;-76
2021/05/08 01:36:24;;;;;;;1.83;1.30;;;4.90;76.10;;;;;;5054838;28;20025;-76
2021/05/08 01:38:50;;;;;;;1.20;1.05;;;4.90;76.20;;;;;;5054864;28;20029;-78
2021/05/08 01:41:15;;;;;;;1.00;1.00;;;4.80;76.20;;;;;;5053915;28;20032;-76
2021/05/08 01:43:44;;;;;;;1.15;1.00;;;4.80;76.30;;;;;;5054257;28;20518;-77
2021/05/08 01:46:09;;;;;;;2.13;1.58;;;4.80;76.40;;;;;;5036848;28;20021;-77
2021/05/08 01:48:35;;;;;;;1.85;1.30;;;4.80;76.40;;;;;;5054581;28;20032;-77
2021/05/08 01:51:00;;;;;;;1.55;1.45;;;4.80;76.50;;;;;;5053898;28;20045;-77
2021/05/08 01:53:26;;;;;;;1.83;1.40;;;4.70;76.50;;;;;;5054575;28;20428;-77
2021/05/08 01:55:52;;;;;;;1.50;1.40;;;4.80;76.70;;;;;;5053127;28;20024;-76
2021/05/08 01:58:17;;;;;;;1.80;1.70;;;4.80;76.70;;;;;;5054280;28;20033;-77
2021/05/08 02:00:45;;;;;;;1.58;1.20;;;4.80;76.70;;;;;;5054070;28;20025;-78
2021/05/08 02:03:12;;;;;;;1.27;1.17;;;4.80;76.60;;;;;;5054254;28;20033;-77
2021/05/08 02:05:40;;;;;;;1.55;1.15;;;4.80;76.50;;;;;;5053740;28;20021;-76
2021/05/08 02:08:08;;;;;;;1.30;1.20;;;4.90;76.50;;;;;;5053704;28;20029;-76
2021/05/08 02:10:35;;;;;;;1.38;1.27;;;4.90;76.40;;;;;;5052969;28;20481;-76
2021/05/08 02:13:04;;;;;;;1.95;1.60;;;4.90;76.60;;;;;;5053956;28;20033;-77
2021/05/08 02:15:30;;;;;;;1.52;1.42;;;4.90;76.60;;;;;;5053808;28;20100;-76
2021/05/08 02:17:56;;;;;;;2.08;1.50;;;4.90;76.50;;;;;;5054107;28;20108;-76
2021/05/08 02:20:27;;;;;;;1.88;1.35;;;5.00;76.60;;;;;;5053637;28;20036;-76
2021/05/08 02:22:58;;;;;;;1.90;1.30;;;5.00;76.50;;;;;;5054086;28;20389;-77
2021/05/08 02:25:24;;;;;;;1.70;1.42;;;5.00;76.50;;;;;;5053037;28;20025;-76
2021/05/08 02:27:50;;;;;;;1.33;1.23;;;5.10;76.50;;;;;;5053288;28;20045;-76
2021/05/08 02:30:22;;;;;;;1.50;1.40;;;5.10;76.40;;;;;;5053406;28;20036;-76
2021/05/08 02:32:48;;;;;;;1.70;1.55;;;5.20;76.30;;;;;;5053776;28;20028;-78
2021/05/08 02:35:16;;;;;;;1.27;1.17;;;5.30;76.20;;;;;;5053607;28;20025;-77
2021/05/08 02:37:42;;;;;;;1.45;1.20;;;5.40;76.00;;;;;;5052625;28;20021;-77
2021/05/08 02:40:12;;;;;;;1.67;1.50;;;5.50;75.90;;;;;;5052998;28;20385;-76
2021/05/08 02:42:37;;;;;;;2.30;1.60;;;5.50;75.90;;;;;;5053363;28;20112;-77
2021/05/08 02:45:05;;;;;;;1.42;1.30;;;5.60;75.90;;;;;;5053596;28;20100;-76
2021/05/08 02:47:31;;;;;;;2.70;1.52;;;5.60;75.90;;;;;;5053614;28;20017;-77
2021/05/08 02:49:56;;;;;;;1.27;1.17;;;5.60;75.80;;;;;;5052845;28;20123;-76
2021/05/08 02:52:22;;;;;;;1.65;1.15;;;5.60;75.80;;;;;;5052558;28;20033;-77
2021/05/08 02:54:48;;;;;;;1.58;1.33;;;5.70;75.90;;;;;;5053337;28;20021;-76
2021/05/08 02:57:15;;;;;;;1.33;1.10;;;5.70;75.90;;;;;;5035526;28;20548;-77
2021/05/08 02:59:40;;;;;;;2.00;1.73;;;5.80;75.90;;;;;;5053049;28;20104;-77
2021/05/08 03:02:06;;;;;;;1.92;1.15;;;5.80;76.50;;;;;;5053041;28;20056;-77
2021/05/08 03:04:32;;;;;;;1.88;1.27;;;5.90;75.90;;;;;;5053082;28;20473;-76
2021/05/08 03:07:01;;;;;;;1.52;1.40;;;5.90;76.00;;;;;;5052796;28;20029;-77
2021/05/08 03:09:27;;;;;;;1.40;1.30;;;6.00;75.80;;;;;;5052911;28;20091;-77
2021/05/08 03:11:52;;;;;;;1.45;1.23;;;6.00;75.80;;;;;;5052756;28;20524;-77
2021/05/08 03:14:17;;;;;;;2.10;1.30;;;6.00;75.90;;;;;;5053238;28;20021;-77
2021/05/08 03:16:43;;;;;;;1.33;1.23;;;6.00;75.90;;;;;;5053107;28;20044;-77
2021/05/08 03:19:09;;;;;;;1.90;1.38;;;6.10;75.90;;;;;;5053014;28;20029;-77
2021/05/08 03:21:35;;;;;;;1.30;1.20;;;6.10;75.80;;;;;;5052325;28;20032;-77
2021/05/08 03:24:03;;;;;;;1.40;1.30;;;6.20;75.90;;;;;;5052714;28;20171;-77
2021/05/08 03:26:28;;;;;;;1.90;1.60;;;6.20;75.90;;;;;;5052799;28;20036;-76
2021/05/08 03:28:54;;;;;;;1.38;1.27;;;6.20;75.90;;;;;;5052524;28;20041;-77
2021/05/08 03:31:19;;;;;;;1.42;1.02;;;6.20;76.00;;;;;;5053406;28;20021;-77
2021/05/08 03:33:45;;;;;;;2.00;1.60;;;6.20;76.10;;;;;;5052362;28;20032;-77
2021/05/08 03:36:11;;;;;;;1.58;1.13;;;6.10;76.10;;;;;;5052036;28;20044;-77
2021/05/08 03:38:37;;;;;;;1.17;0.90;;;6.00;76.20;;;;;;5034930;28;20131;-78
2021/05/08 03:41:03;;;;;;;1.23;1.13;;;6.00;76.40;;;;;;5052244;28;20031;-76
2021/05/08 03:43:29;;;;;;;1.33;1.17;;;5.90;76.50;;;;;;5052686;28;20428;-77
2021/05/08 03:45:55;;;;;;;1.00;0.90;;;6.00;76.50;;;;;;5052815;28;20013;-77
2021/05/08 03:48:20;;;;;;;1.40;1.30;;;6.00;76.50;;;;;;5035855;28;20025;-77
2021/05/08 03:50:46;;;;;;;1.05;1.05;;;6.00;76.30;;;;;;5055923;28;20021;-76
2021/05/08 03:53:12;;;;;;;1.58;1.40;;;6.00;76.30;;;;;;5039262;28;20487;-75
2021/05/08 03:55:38;;;;;;;1.88;1.27;;;6.10;76.30;;;;;;5018948;28;20030;-76
2021/05/08 03:58:04;;;;;;;1.40;1.20;;;6.10;76.30;;;;;;5037872;28;20026;-76
2021/05/08 04:00:29;;;;;;;1.23;1.13;;;6.10;76.30;;;;;;5036731;28;20040;-76
2021/05/08 04:02:56;;;;;;;2.25;1.50;;;6.00;76.20;;;;;;5037607;28;20487;-76
2021/05/08 04:05:21;;;;;;;1.63;1.40;;;6.00;76.40;;;;;;5056098;28;20112;-76
2021/05/08 04:07:47;;;;;;;2.20;1.77;;;6.00;76.50;;;;;;5056433;28;20021;-76
2021/05/08 04:10:12;;;;;;;1.95;1.45;;;5.90;76.50;;;;;;5040765;28;20017;-77
2021/05/08 04:12:38;;;;;;;1.73;1.33;;;5.90;76.60;;;;;;5036486;28;20370;-77
2021/05/08 04:15:04;;;;;;;1.63;1.48;;;5.80;76.70;;;;;;5044679;28;20028;-77
2021/05/08 04:17:29;;;;;;;1.42;1.33;;;5.80;76.70;;;;;;5055769;28;20109;-77
2021/05/08 04:19:55;;;;;;;1.90;1.50;;;5.80;76.90;;;;;;5055561;28;20056;-76
2021/05/08 04:22:20;;;;;;;2.60;1.77;;;5.70;76.90;;;;;;5055853;28;20021;-77
2021/05/08 04:24:46;;;;;;;2.00;1.58;;;5.70;77.00;;;;;;5037326;28;20385;-77
2021/05/08 04:27:12;;;;;;;1.38;1.27;;;5.60;77.10;;;;;;5036192;28;20045;-77
2021/05/08 04:29:37;;;;;;;2.15;1.52;;;5.60;77.10;;;;;;5034799;28;20448;-77
2021/05/08 04:32:03;;;;;;;1.75;1.65;;;5.60;77.00;;;;;;5056196;28;20100;-77
2021/05/08 04:34:28;;;;;;;1.52;1.33;;;5.70;76.90;;;;;;5041382;28;20049;-76
2021/05/08 04:36:54;;;;;;;1.52;1.30;;;5.80;76.80;;;;;;5055926;28;20036;-77
2021/05/08 04:39:19;;;;;;;1.25;1.00;;;5.90;76.60;;;;;;5055749;28;20036;-75
2021/05/08 04:41:45;;;;;;;2.05;1.50;;;6.00;76.50;;;;;;5041112;28;20059;-76
2021/05/08 04:44:10;;;;;;;1.45;1.33;;;6.00;76.30;;;;;;5055564;28;20037;-76
2021/05/08 04:46:36;;;;;;;2.05;1.70;;;6.20;76.30;;;;;;5055303;28;20035;-77
2021/05/08 04:49:02;;;;;;;1.23;1.13;;;6.20;76.20;;;;;;5054292;28;20043;-76
2021/05/08 04:51:28;;;;;;;1.20;1.10;;;6.30;76.10;;;;;;5054300;28;20067;-76
2021/05/08 04:53:53;;;;;;;2.60;2.05;;;6.50;76.00;;;;;;5055524;28;20473;-75
2021/05/08 04:56:19;;;;;;;2.45;1.80;;;6.60;75.80;;;;;;5055638;28;20048;-77
2021/05/08 04:58:44;;;;;;;1.63;1.50;;;6.60;75.60;;;;;;5037643;28;20033;-77
2021/05/08 05:01:10;;;;;;;2.72;1.75;;;6.70;75.70;;;;;;5054861;28;20381;-77
2021/05/08 05:03:36;;;;;;;1.88;1.45;;;6.80;75.70;;;;;;5054834;28;20116;-77
2021/05/08 05:06:03;;;;;;;2.53;1.70;;;6.90;75.90;;;;;;5055358;28;20111;-77
2021/05/08 05:08:29;;;;;;;1.30;1.20;;;6.90;75.80;;;;;;5055476;28;20441;-77
2021/05/08 05:10:55;;;;;;;1.85;1.63;;;6.90;76.00;;;;;;5055507;28;20095;-77
2021/05/08 05:13:22;;;;;;;2.38;1.80;;;6.90;76.00;;;;;;5055357;28;20370;-77
2021/05/08 05:15:47;;;;;;;1.60;1.50;;;7.00;76.10;;;;;;5055154;28;20021;-77
2021/05/08 05:18:13;;;;;;;1.63;1.52;;;7.10;76.10;;;;;;5054761;28;20549;-76
2021/05/08 05:20:40;;;;;;;2.40;1.70;;;7.20;75.90;;;;;;5055276;28;20021;-75
2021/05/08 05:23:05;;;;;;;1.67;1.58;;;7.30;75.80;;;;;;5055071;28;20112;-77
2021/05/08 05:25:31;;;;;;;2.30;1.65;;;7.30;75.60;;;;;;5037046;28;20113;-76
2021/05/08 05:27:56;;;;;;;1.48;1.38;;;7.40;75.70;;;;;;5054647;28;20099;-77
2021/05/08 05:30:22;;;;;;;1.63;1.52;;;7.40;75.70;;;;;;5055074;28;20075;-77
2021/05/08 05:32:48;;;;;;;1.77;1.67;;;7.40;75.70;;;;;;5054474;28;20032;-77
2021/05/08 05:35:14;;;;;;;1.42;1.33;;;7.50;75.90;;;;;;5054867;28;20024;-77
2021/05/08 05:37:40;;;;;;;1.27;1.17;;;7.50;75.70;;;;;;5054820;28;20083;-77
2021/05/08 05:40:07;;;;;;;1.35;1.20;;;7.70;75.60;;;;;;5054825;28;20025;-76
2021/05/08 05:42:32;;;;;;;1.33;1.23;;;7.80;75.30;;;;;;5054448;28;20029;-77
2021/05/08 05:44:58;;;;;;;1.45;1.33;;;7.90;75.10;;;;;;5054810;28;20354;-77
2021/05/08 05:47:26;;;;;;;2.17;1.73;;;8.10;75.10;;;;;;5054125;28;20025;-77
2021/05/08 05:49:54;;;;;;;2.15;1.70;;;8.20;75.00;;;;;;5054593;28;20033;-78
2021/05/08 05:52:21;;;;;;;1.63;1.50;;;8.30;74.90;;;;;;5054571;28;20020;-77
2021/05/08 05:54:48;;;;;;;2.10;1.67;;;8.30;74.80;;;;;;5054439;28;20063;-77
2021/05/08 05:57:14;;;;;;;1.63;1.40;;;8.40;74.90;;;;;;5054358;28;20021;-78
2021/05/08 05:59:43;;;;;;;2.13;1.90;;;8.50;74.80;;;;;;5054325;28;20021;-78
2021/05/08 06:02:10;;;;;;;1.63;1.52;;;8.60;74.80;;;;;;5053885;28;20029;-77
2021/05/08 06:04:36;;;;;;;2.38;1.75;;;8.70;74.50;;;;;;5054403;28;20033;-78
2021/05/08 06:07:01;;;;;;;1.52;1.30;;;8.80;75.10;;;;;;5054324;28;20039;-76
2021/05/08 06:09:27;;;;;;;2.08;1.70;;;8.90;74.50;;;;;;5054041;28;20389;-77
2021/05/08 06:11:55;;;;;;;2.28;1.63;;;8.90;74.50;;;;;;5035231;28;20017;-77
2021/05/08 06:14:21;;;;;;;2.95;2.03;;;9.00;74.50;;;;;;5054206;28;20021;-78
2021/05/08 06:16:46;;;;;;;2.33;1.70;;;9.10;74.40;;;;;;5053645;28;20035;-76
2021/05/08 06:19:12;;;;;;;2.55;2.05;;;9.30;74.20;;;;;;5054017;28;20076;-76
2021/05/08 06:21:39;;;;;;;3.20;1.85;;;9.40;74.10;;;;;;5053805;28;20130;-76
2021/05/08 06:24:09;;;;;;;1.92;1.55;;;9.50;74.00;;;;;;5053791;28;20044;-74
2021/05/08 06:26:35;;;;;;;1.60;1.35;;;9.60;74.20;;;;;;5052892;28;20009;-75
2021/05/08 06:29:02;;;;;;;1.90;1.63;;;9.60;73.90;;;;;;5053592;28;20049;-76
2021/05/08 06:31:28;;;;;;;2.58;2.00;;;9.60;74.00;;;;;;5032898;28;20017;-76
2021/05/08 06:33:54;;;;;;;2.83;1.80;;;9.70;74.00;;;;;;5033639;28;20390;-75
2021/05/08 06:36:19;;;;;;;1.40;1.30;;;9.70;74.10;;;;;;5051088;28;20025;-72
2021/05/08 06:38:45;;;;;;;2.58;2.38;;;9.80;74.00;;;;;;5053584;28;20031;-81
2021/05/08 06:41:10;;;;;;;1.73;1.60;;;9.90;73.90;;;;;;5028106;28;20017;-81
2021/05/08 06:43:36;;;;;;;2.03;1.83;;;10.00;73.90;;;;;;5034829;28;20504;-84
2021/05/08 06:46:01;;;;;;;2.35;1.80;;;10.10;73.80;;;;;;5040171;28;20474;-82
2021/05/08 06:48:27;;;;;;;2.30;1.77;;;10.20;73.70;;;;;;5045678;28;20028;-83
2021/05/08 06:50:52;;;;;;;1.60;1.50;;;10.30;73.60;;;;;;5053744;28;20017;-83
2021/05/08 06:53:18;;;;;;;1.67;1.55;;;10.40;73.40;;;;;;5053685;28;20021;-80
2021/05/08 06:55:43;;;;;;;2.88;1.90;;;10.50;73.30;;;;;;5051710;28;20033;-84
2021/05/08 06:58:09;;;;;;;2.28;2.00;;;10.60;73.20;;;;;;5051935;28;20032;-82
2021/05/08 07:00:34;;;;;;;2.10;1.80;;;10.70;73.10;;;;;;5052640;28;20021;-82
2021/05/08 07:03:00;;;;;;;3.13;2.08;;;10.70;73.00;;;;;;5053499;28;20106;-81
2021/05/08 07:05:26;;;;;;;2.95;2.40;;;10.80;73.10;;;;;;5051647;28;20029;-82
2021/05/08 07:08:05;;;;;;;1.80;1.60;;;10.80;73.00;;;;;;5053372;28;20037;-76
2021/05/08 07:10:31;;;;;;;1.77;1.55;;;10.90;73.00;;;;;;5053247;28;20032;-76
2021/05/08 07:12:57;;;;;;;2.95;2.17;;;10.90;73.00;;;;;;5053341;28;20021;-78
2021/05/08 07:15:22;;;;;;;1.92;1.70;;;11.00;73.00;;;;;;5052775;28;20033;-76
2021/05/08 07:18:02;;;;;;;2.05;1.85;;;11.10;73.00;;;;;;5053115;28;20510;-76
2021/05/08 07:20:28;;;;;;;2.28;2.10;;;11.20;72.80;;;;;;5051237;28;20029;-76
2021/05/08 07:22:54;;;;;;;2.00;1.80;;;11.20;72.70;;;;;;5052625;28;20022;-76
2021/05/08 07:25:19;;;;;;;2.13;1.80;;;11.30;72.70;;;;;;5052711;28;20039;-77
2021/05/08 07:27:45;;;;;;;2.83;2.30;;;11.40;72.60;;;;;;5031620;28;20564;-77
2021/05/08 07:30:11;;;;;;;2.22;1.77;;;11.40;72.60;;;;;;5033699;28;20022;-76
2021/05/08 07:32:38;;;;;;;2.30;1.80;;;11.50;72.60;;;;;;5033241;28;20029;-77
2021/05/08 07:35:08;;;;;;;2.75;1.85;;;11.60;72.60;;;;;;5038631;28;20025;-75
2021/05/08 07:37:33;;;;;;;;;;;11.70;72.40;;;;;;5045772;28;20030;-76
2021/05/08 07:39:59;;;;;;;2.22;1.88;;;11.80;72.40;;;;;;5043769;28;19905;-75
2021/05/08 07:42:24;;;;;;;2.45;1.73;;;11.90;72.20;;;;;;5032684;28;20040;-76
2021/05/08 07:44:50;;;;;;;1.70;1.60;;;12.00;72.10;;;;;;5044265;28;20051;-76
2021/05/08 07:47:15;;;;;;;2.30;1.80;;;12.10;72.00;;;;;;5052833;28;20017;-78
2021/05/08 07:49:43;;;;;;;2.08;1.58;;;12.20;71.90;;;;;;5052236;28;20036;-77
2021/05/08 07:52:09;;;;;;;1.73;1.63;;;12.30;71.70;;;;;;5028659;28;20104;-78
2021/05/08 07:54:34;;;;;;;2.30;1.40;;;12.50;71.50;;;;;;5032946;28;20034;-77
2021/05/08 07:57:00;;;;;;;1.50;1.33;;;12.60;71.40;;;;;;5043783;28;20464;-78
2021/05/08 07:59:26;;;;;;;3.80;1.63;;;12.70;71.30;;;;;;5034515;28;20021;-78
2021/05/08 08:01:51;;;;;;;2.58;1.73;;;12.60;71.30;;;;;;5052216;28;20059;-78
2021/05/08 08:04:17;;;;;;;2.38;1.85;;;12.60;71.30;;;;;;5048649;28;20542;-77
2021/05/08 08:06:42;;;;;;;2.08;1.50;;;12.60;71.40;;;;;;5050709;28;20025;-76
2021/05/08 08:09:08;;;;;;;2.13;1.67;;;12.60;71.40;;;;;;5052432;28;20571;-74
2021/05/08 08:11:33;;;;;;;1.88;1.67;;;12.60;71.50;;;;;;5051986;28;20028;-76
2021/05/08 08:13:59;;;;;;;1.45;1.35;;;12.50;71.50;;;;;;5052709;28;20040;-81
2021/05/08 08:16:25;;;;;;;2.13;1.92;;;12.60;71.50;;;;;;5052425;28;20112;-75
2021/05/08 08:18:50;;;;;;;1.83;1.40;;;12.70;71.50;;;;;;5052176;28;20025;-74
2021/05/08 08:21:16;;;;;;;2.38;1.63;;;12.80;71.30;;;;;;5049768;28;20108;-74
2021/05/08 08:23:44;;;;;;;1.90;1.70;;;12.90;71.30;;;;;;5051988;28;20044;-74
2021/05/08 08:26:10;;;;;;;2.53;1.83;;;12.90;71.00;;;;;;5050797;28;20025;-74
2021/05/08 08:28:36;;;;;;;1.63;1.52;;;12.90;71.00;;;;;;5052088;28;20493;-75
2021/05/08 08:31:01;;;;;;;1.35;1.20;;;13.00;70.90;;;;;;5052400;28;20039;-75
2021/05/08 08:33:27;;;;;;;2.40;1.63;;;13.00;70.80;;;;;;5052091;28;20027;-74
2021/05/08 08:35:54;;;;;;;2.72;2.25;;;13.00;70.70;;;;;;5051135;28;20473;-73
2021/05/08 08:38:20;;;;;;;2.10;1.50;;;13.10;70.70;;;;;;5055160;28;20112;-78
2021/05/08 08:40:46;;;;;;;2.00;1.58;;;13.10;70.70;;;;;;5055267;28;20211;-76
2021/05/08 08:43:12;;;;;;;1.70;1.50;;;13.10;70.70;;;;;;5055753;28;20057;-75
2021/05/08 08:45:38;;;;;;;1.85;1.42;;;13.10;70.60;;;;;;5055782;28;20074;-76
2021/05/08 08:48:04;;;;;;;2.78;2.10;;;13.20;70.50;;;;;;5055757;28;20033;-75
2021/05/08 08:50:35;;;;;;;2.25;1.70;;;13.20;70.50;;;;;;5037449;28;20067;-76
2021/05/08 08:53:01;;;;;;;1.83;1.40;;;13.30;70.30;;;;;;5055770;28;20376;-75
2021/05/08 08:55:26;;;;;;;2.55;1.73;;;13.30;70.30;;;;;;5055361;28;20104;-76
2021/05/08 08:57:53;;;;;;;2.10;1.60;;;13.30;70.10;;;;;;5055664;28;20033;-76
2021/05/08 09:00:19;;;;;;;3.30;1.67;;;13.40;70.10;;;;;;5055630;28;20052;-77
2021/05/08 09:02:47;;;;;;;2.28;1.75;;;13.40;70.00;;;;;;5055188;28;20515;-75
2021/05/08 09:05:15;;;;;;;2.22;1.83;;;13.60;70.10;;;;;;5055536;28;20090;-76
2021/05/08 09:07:44;;;;;;;1.85;1.30;;;13.70;69.80;;;;;;5037509;28;20029;-75
2021/05/08 09:10:19;;;;;;;1.85;1.70;;;13.90;69.50;;;;;;5054979;28;20017;-76
2021/05/08 09:12:46;;;;;;;2.05;1.52;;;14.00;69.10;;;;;;5055319;28;20064;-76
2021/05/08 09:15:12;;;;;;;2.22;1.63;;;14.10;69.00;;;;;;5055264;28;20470;-78
2021/05/08 09:17:44;;;;;;;3.35;1.90;;;14.20;68.90;;;;;;5055229;28;20036;-76
2021/05/08 09:20:11;;;;;;;1.80;1.35;;;14.40;68.70;;;;;;5055405;28;20489;-76
2021/05/08 09:22:39;;;;;;;1.48;1.35;;;14.40;68.60;;;;;;5047184;28;20044;-75
2021/05/08 09:25:06;;;;;;;2.35;1.70;;;14.50;68.70;;;;;;5034540;28;20022;-76
2021/05/08 09:27:50;;;;;;;1.80;1.45;;;14.70;68.30;;;;;;5047646;28;20052;-75
2021/05/08 09:30:23;;;;;;;1.73;1.50;;;14.80;68.30;;;;;;5053867;28;20021;-77
2021/05/08 09:32:59;;;;;;;1.85;1.70;;;14.80;68.10;;;;;;5035119;28;20028;-76
2021/05/08 09:35:36;;;;;;;1.70;1.60;;;14.80;68.10;;;;;;5034910;28;20478;-76
2021/05/08 09:38:17;;;;;;;4.03;2.08;;;14.80;68.70;;;;;;5034765;28;20367;-75
2021/05/08 09:40:44;;;;;;;2.00;1.80;;;14.70;68.20;;;;;;5034552;28;20088;-76
2021/05/08 09:43:12;;;;;;;1.77;1.67;;;14.70;68.20;;;;;;5034827;28;20497;-76
2021/05/08 09:45:40;;;;;;;2.58;1.63;;;14.70;68.30;;;;;;5034680;28;20021;-76
2021/05/08 09:48:28;;;;;;;2.17;1.60;;;14.70;68.40;;;;;;5034690;28;20022;-76
2021/05/08 09:51:12;;;;;;;2.70;1.70;;;14.80;68.40;;;;;;5034733;28;20260;-76
2021/05/08 09:53:37;;;;;;;1.85;1.60;;;14.80;68.40;;;;;;5016396;28;20025;-75
2021/05/08 09:56:03;;;;;;;1.45;1.35;;;14.90;68.30;;;;;;5034635;28;20022;-75
2021/05/08 09:58:28;;;;;;;2.95;1.80;;;15.00;68.00;;;;;;5016721;28;20025;-76
2021/05/08 10:00:54;;;;;;;2.28;1.65;;;15.00;67.60;;;;;;5034258;28;20490;-75
2021/05/08 10:03:21;;;;;;;2.20;1.33;;;15.10;67.50;;;;;;5053401;28;20051;-75
2021/05/08 10:05:57;;;;;;;1.83;1.55;;;15.20;67.50;;;;;;5054280;28;20017;-77
2021/05/08 10:08:22;;;;;;;1.42;1.33;;;15.30;67.00;;;;;;5035791;28;20544;-75
2021/05/08 10:10:48;;;;;;;1.92;1.45;;;15.40;67.10;;;;;;5036229;28;20021;-76
2021/05/08 10:13:13;;;;;;;1.90;1.70;;;15.40;67.00;;;;;;5054067;28;20025;-76
2021/05/08 10:15:40;;;;;;;1.75;1.63;;;15.50;67.10;;;;;;5054141;28;20021;-76
2021/05/08 10:18:10;;;;;;;1.30;1.20;;;15.50;66.90;;;;;;5053984;28;20078;-76
2021/05/08 10:20:38;;;;;;;1.50;1.40;;;15.60;66.80;;;;;;5053930;28;20031;-76
2021/05/08 10:23:11;;;;;;;1.52;1.42;;;15.60;66.60;;;;;;5053337;28;20032;-76
2021/05/08 10:25:43;;;;;;;2.45;1.88;;;15.70;66.50;;;;;;5053879;28;20534;-77
2021/05/08 10:28:09;;;;;;;1.92;1.70;;;15.70;66.40;;;;;;5053713;28;20056;-77
2021/05/08 10:30:43;;;;;;;2.03;1.83;;;15.50;66.40;;;;;;5053697;28;20025;-77
2021/05/08 10:33:15;;;;;;;1.98;1.33;;;15.40;66.50;;;;;;5053636;28;20028;-77
2021/05/08 10:35:43;;;;;;;1.80;1.52;;;15.10;66.80;;;;;;5053371;28;20028;-78
2021/05/08 10:38:26;;;;;;;1.48;1.27;;;15.00;67.00;;;;;;5053245;28;20079;-78
2021/05/08 10:40:53;;;;;;;3.10;1.88;;;15.10;67.00;;;;;;5053662;28;20021;-75
2021/05/08 10:43:36;;;;;;;1.75;1.33;;;15.20;66.90;;;;;;5054017;28;20107;-76
2021/05/08 10:46:02;;;;;;;1.30;1.20;;;15.30;66.10;;;;;;5053473;28;20040;-76
2021/05/08 10:48:28;;;;;;;1.77;1.40;;;15.30;66.20;;;;;;5053649;28;20481;-78
2021/05/08 10:50:55;;;;;;;1.80;1.38;;;15.30;66.00;;;;;;5053013;28;20075;-76
2021/05/08 10:53:42;;;;;;;2.15;1.63;;;15.20;65.90;;;;;;5053566;28;20031;-76
2021/05/08 10:56:33;;;;;;;2.45;1.27;;;15.20;65.90;;;;;;5040617;28;20474;-75
2021/05/08 10:59:04;;;;;;;1.73;1.15;;;15.20;66.00;;;;;;5030008;28;20076;-76
2021/05/08 11:01:44;;;;;;;1.35;1.13;;;15.20;66.20;;;;;;5030491;28;20064;-76
2021/05/08 11:04:11;;;;;;;1.13;1.00;;;15.20;66.20;;;;;;5030637;28;20038;-76
2021/05/08 11:06:37;;;;;;;1.60;1.35;;;15.20;66.10;;;;;;5030183;28;20048;-76
2021/05/08 11:09:04;;;;;;;1.50;1.38;;;15.00;66.30;;;;;;5030373;28;20053;-75
2021/05/08 11:11:47;;;;;;;1.77;1.63;;;14.80;66.70;;;;;;5030572;28;20101;-76
2021/05/08 11:14:13;;;;;;;1.17;1.02;;;14.60;66.90;;;;;;5030742;28;20025;-76
2021/05/08 11:16:59;;;;;;;1.65;1.35;;;14.50;67.30;;;;;;5030433;28;20083;-76
2021/05/08 11:19:25;;;;;;;1.25;1.02;;;14.30;67.40;;;;;;5029904;28;20398;-76
2021/05/08 11:22:07;;;;;;;1.42;1.25;;;14.30;67.60;;;;;;5029891;28;20029;-80
2021/05/08 11:24:35;;;;;;;1.30;1.20;;;14.20;67.60;;;;;;5030424;28;20148;-77
2021/05/08 11:27:01;;;;;;;1.38;1.15;;;14.10;67.90;;;;;;5030372;28;20076;-77
2021/05/08 11:29:31;;;;;;;1.13;1.00;;;14.10;67.80;;;;;;5030506;28;20478;-77
2021/05/08 11:32:06;;;;;;;1.42;1.08;;;14.10;67.80;;;;;;5030053;28;20028;-76
2021/05/08 11:34:33;;;;;;;1.25;1.15;;;14.20;67.70;;;;;;5029782;28;20436;-76
2021/05/08 11:37:02;;;;;;;1.98;1.70;;;14.10;67.60;;;;;;5030185;28;20025;-80
2021/05/08 11:39:35;;;;;;;;;;;14.00;67.60;;;;;;5030925;28;20075;-78
2021/05/08 11:42:09;;;;;;;1.20;1.13;;;13.70;68.10;;;;;;5031704;28;19935;-77
2021/05/08 11:44:36;;;;;;;1.60;1.40;;;13.50;68.70;;;;;;5031484;28;20477;-78
2021/05/08 11:47:28;;;;;;;1.70;1.42;;;13.30;69.70;;;;;;5032840;28;20066;-77
2021/05/08 11:50:13;;;;;;;2.22;1.17;;;13.10;69.50;;;;;;5032069;28;20095;-73
2021/05/08 11:52:49;;;;;;;2.03;1.38;;;13.00;70.50;;;;;;5032859;28;20017;-75
2021/05/08 11:55:20;;;;;;;1.58;1.40;;;12.90;70.20;;;;;;5032850;28;20356;-75
2021/05/08 11:57:58;;;;;;;1.30;1.10;;;12.70;70.50;;;;;;5032922;28;20022;-74
2021/05/08 12:00:25;;;;;;;1.33;1.17;;;12.60;70.90;;;;;;5032705;28;20053;-74
2021/05/08 12:03:25;;;;;;;1.60;1.50;;;12.50;71.30;;;;;;5032834;28;20108;-75
2021/05/08 12:05:52;;;;;;;2.17;1.73;;;12.40;71.50;;;;;;5030539;28;20041;-78
2021/05/08 12:08:22;;;;;;;1.40;1.10;;;12.20;71.80;;;;;;5040123;28;20021;-75
2021/05/08 12:10:49;;;;;;;1.73;1.30;;;12.00;72.20;;;;;;5056330;28;20024;-75
2021/05/08 12:13:14;;;;;;;1.67;1.48;;;11.80;72.60;;;;;;5056104;28;20029;-75
2021/05/08 12:15:42;;;;;;;1.55;1.40;;;11.60;72.90;;;;;;5056417;28;20538;-76
2021/05/08 12:18:12;;;;;;;5.03;1.45;;;11.50;73.30;;;;;;5055977;28;20017;-75
2021/05/08 12:20:42;;;;;;;1.17;1.08;;;11.40;73.60;;;;;;5056278;28;20115;-75
2021/05/08 12:23:22;;;;;;;2.47;1.52;;;11.20;73.70;;;;;;5052552;28;20013;-76
2021/05/08 12:26:10;;;;;;;2.13;1.40;;;11.20;73.90;;;;;;5055578;28;20066;-75
2021/05/08 12:28:37;;;;;;;1.40;1.30;;;11.00;74.10;;;;;;5052506;28;20378;-76
2021/05/08 12:31:24;;;;;;;2.15;1.40;;;10.90;74.40;;;;;;5049516;28;20033;-74
2021/05/08 12:33:51;;;;;;;1.25;1.15;;;10.90;74.40;;;;;;5051218;28;20063;-74
2021/05/08 12:36:22;;;;;;;1.30;1.17;;;10.90;74.50;;;;;;5053591;28;20393;-74
2021/05/08 12:38:51;;;;;;;0.65;0.65;;;10.90;74.30;;;;;;5035423;28;20017;-75
2021/05/08 12:41:29;;;;;;;1.45;1.23;;;11.00;74.20;;;;;;5139062;23;20052;-76
2021/05/08 12:44:06;;;;;;;1.02;1.02;;;11.10;74.20;;;;;;5111935;28;20066;-74
2021/05/08 12:46:57;;;;;;;0.90;0.90;;;11.20;74.20;;;;;;5107706;28;20050;-75
2021/05/08 12:51:54;;;;;;;1.00;1.00;;;11.20;74.10;;;;;;5000054;28;20046;-75
2021/05/08 12:54:29;;;;;;;1.08;1.00;;;11.20;74.20;;;;;;5081533;23;20061;-75
2021/05/08 12:57:08;;;;;;;1.00;1.00;;;11.20;74.50;;;;;;5047427;28;20095;-75
2021/05/08 12:59:33;;;;;;;0.53;0.53;;;11.20;74.80;;;;;;5050304;28;20423;-74